27.0°F
Current conditions from King Hill
Updated every 5 minutes
 
  Monday December 22, 2014

Station Historical Data
Daily Summary for July 9, 2012 Units:  English    Metric   Both
« Previous Day
Next Day »
Daily Weekly Monthly Yearly Custom
  High: Low: Average:
Temperature: 74.1 °F 49.6 °F 62.1 °F
Dew Point: 54.4 °F 46.8 °F 49.6 °F
Humidity: 95% 39% 67%
Wind Speed: 8.0mph 0.0mph 2.6mph
Wind Gust: 18.0mph - -
Wind- - WNW
Pressure: 29.95 in 29.85 in -
Precipitation: 0.00 in    
Historical Graphs
 
 
Tabular Data for July 9, 2012
Time Temperature Dew Point Pressure Wind Wind Speed Wind Gust Humidity Daily Rainfall
00:00 55.4 °F 49.3 °F 29.86 in Calm     80% 0.00 in
00:05 55.0 °F 49.3 °F 29.86 in Calm     81% 0.00 in
00:10 54.8 °F 49.4 °F 29.86 in Calm     82% 0.00 in
00:15 54.7 °F 49.3 °F 29.86 in Calm     82% 0.00 in
00:20 54.6 °F 49.5 °F 29.87 in Calm     83% 0.00 in
00:25 54.6 °F 49.5 °F 29.87 in Calm     83% 0.00 in
00:30 54.3 °F 49.3 °F 29.86 in Calm     83% 0.00 in
00:35 54.1 °F 49.4 °F 29.86 in Calm     84% 0.00 in
00:40 54.0 °F 49.3 °F 29.86 in Calm     84% 0.00 in
00:45 53.9 °F 49.5 °F 29.86 in Calm     85% 0.00 in
00:50 54.2 °F 49.8 °F 29.86 in Calm     85% 0.00 in
00:55 54.5 °F 49.8 °F 29.86 in Calm     84% 0.00 in
01:00 54.6 °F 49.9 °F 29.86 in Calm     84% 0.00 in
01:05 54.6 °F 49.5 °F 29.86 in Calm     83% 0.00 in
01:10 54.3 °F 49.3 °F 29.86 in Calm     83% 0.00 in
01:15 53.9 °F 48.9 °F 29.86 in Calm     83% 0.00 in
01:20 53.4 °F 48.4 °F 29.86 in Calm     83% 0.00 in
01:25 53.5 °F 49.1 °F 29.85 in Calm     85% 0.00 in
01:30 53.6 °F 48.9 °F 29.85 in Calm     84% 0.00 in
01:35 53.7 °F 49.3 °F 29.85 in Calm     85% 0.00 in
01:40 54.0 °F 49.6 °F 29.85 in Calm     85% 0.00 in
01:45 54.3 °F 49.3 °F 29.86 in Calm     83% 0.00 in
01:50 54.4 °F 49.7 °F 29.86 in Calm     84% 0.00 in
01:55 54.9 °F 49.8 °F 29.86 in Calm     83% 0.00 in
02:00 54.8 °F 49.7 °F 29.86 in Calm     83% 0.00 in
02:05 54.8 °F 49.4 °F 29.86 in Calm     82% 0.00 in
02:10 54.6 °F 49.2 °F 29.86 in Calm     82% 0.00 in
02:15 54.4 °F 49.3 °F 29.86 in Calm     83% 0.00 in
02:20 54.4 °F 49.3 °F 29.86 in Calm     83% 0.00 in
02:25 54.3 °F 49.3 °F 29.86 in Calm     83% 0.00 in
02:30 53.9 °F 48.9 °F 29.85 in Calm     83% 0.00 in
02:34 54.0 °F 49.3 °F 29.85 in Calm     84% 0.00 in
02:40 53.7 °F 49.0 °F 29.85 in Calm     84% 0.00 in
02:45 53.5 °F 48.8 °F 29.85 in Calm     84% 0.00 in
02:50 53.4 °F 48.7 °F 29.85 in Calm     84% 0.00 in
02:55 52.9 °F 48.2 °F 29.85 in Calm     84% 0.00 in
03:00 52.4 °F 47.7 °F 29.86 in Calm     84% 0.00 in
03:05 52.3 °F 48.2 °F 29.85 in Calm     86% 0.00 in
03:09 52.3 °F 48.2 °F 29.86 in Calm     86% 0.00 in
03:15 52.5 °F 48.4 °F 29.86 in Calm     86% 0.00 in
03:20 53.0 °F 48.9 °F 29.86 in Calm     86% 0.00 in
03:25 53.6 °F 49.2 °F 29.86 in Calm     85% 0.00 in
03:30 53.7 °F 49.0 °F 29.86 in Calm     84% 0.00 in
03:35 53.6 °F 48.9 °F 29.86 in Calm     84% 0.00 in
03:40 53.3 °F 48.3 °F 29.86 in Calm     83% 0.00 in
03:45 52.7 °F 48.0 °F 29.86 in Calm     84% 0.00 in
03:50 52.7 °F 48.3 °F 29.87 in Calm     85% 0.00 in
03:55 52.4 °F 48.0 °F 29.87 in Calm     85% 0.00 in
04:00 52.2 °F 47.8 °F 29.87 in Calm     85% 0.00 in
04:04 52.2 °F 48.1 °F 29.87 in Calm     86% 0.00 in
04:10 51.7 °F 47.7 °F 29.87 in Calm     86% 0.00 in
04:15 51.3 °F 47.3 °F 29.87 in Calm     86% 0.00 in
04:19 51.1 °F 47.1 °F 29.88 in Calm     86% 0.00 in
04:25 50.9 °F 47.2 °F 29.88 in Calm     87% 0.00 in
04:29 50.6 °F 46.9 °F 29.88 in Calm     87% 0.00 in
04:35 50.7 °F 47.3 °F 29.88 in Calm     88% 0.00 in
04:40 50.8 °F 47.4 °F 29.88 in Calm     88% 0.00 in
04:45 50.7 °F 47.3 °F 29.88 in Calm     88% 0.00 in
04:50 50.7 °F 47.6 °F 29.88 in Calm     89% 0.00 in
04:55 50.5 °F 47.4 °F 29.88 in Calm     89% 0.00 in
04:59 50.3 °F 47.2 °F 29.88 in Calm     89% 0.00 in
05:05 50.0 °F 46.9 °F 29.88 in Calm     89% 0.00 in
05:10 49.9 °F 46.8 °F 29.88 in Calm     89% 0.00 in
05:15 49.9 °F 46.8 °F 29.88 in Calm     89% 0.00 in
05:19 49.8 °F 47.0 °F 29.88 in Calm     90% 0.00 in
05:25 49.7 °F 46.9 °F 29.89 in Calm     90% 0.00 in
05:30 49.6 °F 46.8 °F 29.89 in Calm     90% 0.00 in
05:35 49.6 °F 46.8 °F 29.89 in Calm     90% 0.00 in
05:39 49.6 °F 46.8 °F 29.89 in Calm     90% 0.00 in
05:45 49.6 °F 47.1 °F 29.89 in Calm     91% 0.00 in
05:50 49.6 °F 47.1 °F 29.89 in Calm     91% 0.00 in
05:55 49.6 °F 47.1 °F 29.89 in Calm     91% 0.00 in
05:59 49.7 °F 47.2 °F 29.90 in Calm     91% 0.00 in
06:05 49.8 °F 47.6 °F 29.90 in Calm     92% 0.00 in
06:10 50.0 °F 47.8 °F 29.90 in Calm     92% 0.00 in
06:14 50.2 °F 48.0 °F 29.91 in Calm     92% 0.00 in
06:19 50.6 °F 48.7 °F 29.91 in Calm     93% 0.00 in
06:25 51.2 °F 49.5 °F 29.91 in Calm     94% 0.00 in
06:30 51.4 °F 49.7 °F 29.91 in Calm     94% 0.00 in
06:34 51.4 °F 49.7 °F 29.91 in Calm     94% 0.00 in
06:39 51.4 °F 49.7 °F 29.92 in Calm     94% 0.00 in
06:45 51.7 °F 50.0 °F 29.92 in Calm     94% 0.00 in
06:50 51.9 °F 50.2 °F 29.92 in Calm     94% 0.00 in
06:54 52.2 °F 50.5 °F 29.92 in Calm     94% 0.00 in
07:00 52.5 °F 50.8 °F 29.92 in Calm     94% 0.00 in
07:05 52.9 °F 51.2 °F 29.92 in Calm     94% 0.00 in
07:09 53.3 °F 51.9 °F 29.92 in Calm     95% 0.00 in
07:14 53.9 °F 52.5 °F 29.92 in Calm   2.0 mph 95% 0.00 in
07:20 54.4 °F 53.0 °F 29.92 in Calm   3.0 mph 95% 0.00 in
07:25 55.0 °F 53.6 °F 29.92 in Calm   4.0 mph 95% 0.00 in
07:29 55.6 °F 54.2 °F 29.93 in WNW 1.0 mph 5.0 mph 95% 0.00 in
07:34 56.4 °F 54.4 °F 29.93 in Calm   5.0 mph 93% 0.00 in
07:40 57.0 °F 53.8 °F 29.93 in Calm   4.0 mph 89% 0.00 in
07:45 57.6 °F 53.8 °F 29.93 in Calm   4.0 mph 87% 0.00 in
07:49 58.1 °F 53.6 °F 29.93 in Calm   3.0 mph 85% 0.00 in
07:54 58.9 °F 53.4 °F 29.93 in NW 2.0 mph 5.0 mph 82% 0.00 in
08:00 59.4 °F 52.5 °F 29.94 in NW 2.0 mph 6.0 mph 78% 0.00 in
08:05 60.1 °F 52.5 °F 29.94 in WNW 1.0 mph 7.0 mph 76% 0.00 in
08:09 60.6 °F 52.3 °F 29.94 in NW 1.0 mph 7.0 mph 74% 0.00 in
08:15 61.2 °F 51.7 °F 29.94 in NW 1.0 mph 7.0 mph 71% 0.00 in
08:20 61.8 °F 53.4 °F 29.94 in Calm   5.0 mph 74% 0.00 in
08:24 62.5 °F 52.6 °F 29.94 in NW 2.0 mph 7.0 mph 70% 0.00 in
08:30 62.5 °F 50.6 °F 29.94 in NW 2.0 mph 7.0 mph 65% 0.00 in
08:35 62.6 °F 50.3 °F 29.94 in NW 2.0 mph 6.0 mph 64% 0.00 in
08:39 62.9 °F 51.8 °F 29.93 in WNW 1.0 mph 5.0 mph 67% 0.00 in
08:44 63.5 °F 51.5 °F 29.94 in Calm   5.0 mph 65% 0.00 in
08:50 64.1 °F 52.5 °F 29.94 in Calm   5.0 mph 66% 0.00 in
08:54 64.6 °F 52.6 °F 29.94 in Calm   3.0 mph 65% 0.00 in
08:59 65.0 °F 53.4 °F 29.94 in Calm   2.0 mph 66% 0.00 in
09:04 65.7 °F 52.8 °F 29.94 in Calm   5.0 mph 63% 0.00 in
09:10 66.1 °F 53.6 °F 29.94 in Calm   5.0 mph 64% 0.00 in
09:14 66.5 °F 52.7 °F 29.94 in Calm   4.0 mph 61% 0.00 in
09:20 66.9 °F 53.9 °F 29.94 in Calm   2.0 mph 63% 0.00 in
09:25 67.0 °F 51.8 °F 29.94 in Calm   3.0 mph 58% 0.00 in
09:29 67.3 °F 53.8 °F 29.94 in Calm   3.0 mph 62% 0.00 in
09:34 67.6 °F 51.4 °F 29.94 in Calm   5.0 mph 56% 0.00 in
09:40 67.7 °F 52.9 °F 29.94 in Calm   7.0 mph 59% 0.00 in
09:45 68.3 °F 53.0 °F 29.94 in Calm   7.0 mph 58% 0.00 in
09:49 68.7 °F 52.4 °F 29.94 in Calm   4.0 mph 56% 0.00 in
09:55 68.3 °F 53.0 °F 29.93 in Calm   8.0 mph 58% 0.00 in
09:59 68.4 °F 53.5 °F 29.94 in Calm   8.0 mph 59% 0.00 in
10:05 68.3 °F 52.0 °F 29.94 in Calm   5.0 mph 56% 0.00 in
10:10 67.8 °F 49.6 °F 29.94 in WNW 5.0 mph 9.0 mph 52% 0.00 in
10:14 67.5 °F 51.7 °F 29.94 in Calm   9.0 mph 57% 0.00 in
10:19 67.7 °F 52.4 °F 29.94 in NW 2.0 mph 9.0 mph 58% 0.00 in
10:25 67.9 °F 52.6 °F 29.94 in NW 1.0 mph 9.0 mph 58% 0.00 in
10:30 68.1 °F 51.3 °F 29.94 in Calm   5.0 mph 55% 0.00 in
10:34 68.2 °F 50.9 °F 29.94 in Calm   11.0 mph 54% 0.00 in
10:40 68.6 °F 51.8 °F 29.94 in NW 1.0 mph 11.0 mph 55% 0.00 in
10:45 69.0 °F 53.2 °F 29.94 in North 1.0 mph 11.0 mph 57% 0.00 in
10:49 69.6 °F 52.7 °F 29.94 in Calm   11.0 mph 55% 0.00 in
10:54 70.1 °F 52.7 °F 29.94 in NW 3.0 mph 7.0 mph 54% 0.00 in
10:59 69.0 °F 50.7 °F 29.94 in WNW 3.0 mph 11.0 mph 52% 0.00 in
11:05 68.6 °F 53.3 °F 29.94 in Calm   11.0 mph 58% 0.00 in
11:10 68.6 °F 52.3 °F 29.94 in NNE 2.0 mph 14.0 mph 56% 0.00 in
11:14 68.9 °F 53.1 °F 29.94 in NNE 2.0 mph 14.0 mph 57% 0.00 in
11:19 69.3 °F 52.0 °F 29.94 in NW 5.0 mph 11.0 mph 54% 0.00 in
11:25 68.8 °F 53.0 °F 29.94 in NW 3.0 mph 14.0 mph 57% 0.00 in
11:29 69.0 °F 52.2 °F 29.94 in NW 1.0 mph 14.0 mph 55% 0.00 in
11:35 68.7 °F 49.3 °F 29.94 in NW 2.0 mph 11.0 mph 50% 0.00 in
11:39 68.7 °F 50.9 °F 29.94 in NW 4.0 mph 13.0 mph 53% 0.00 in
11:44 68.9 °F 50.6 °F 29.94 in NW 2.0 mph 13.0 mph 52% 0.00 in
11:50 69.1 °F 49.7 °F 29.94 in NW 5.0 mph 15.0 mph 50% 0.00 in
11:54 69.2 °F 51.4 °F 29.94 in NW 2.0 mph 15.0 mph 53% 0.00 in
11:59 69.6 °F 51.7 °F 29.94 in NW 1.0 mph 14.0 mph 53% 0.00 in
12:05 69.5 °F 52.6 °F 29.94 in WNW 6.0 mph 12.0 mph 55% 0.00 in
12:09 69.3 °F 50.4 °F 29.94 in NW 5.0 mph 18.0 mph 51% 0.00 in
12:14 69.2 °F 49.8 °F 29.95 in NW 5.0 mph 18.0 mph 50% 0.00 in
12:20 69.4 °F 48.9 °F 29.95 in NW 4.0 mph 13.0 mph 48% 0.00 in
12:24 69.7 °F 52.8 °F 29.94 in West 2.0 mph 13.0 mph 55% 0.00 in
12:29 70.3 °F 50.3 °F 29.94 in NW 5.0 mph 10.0 mph 49% 0.00 in
12:35 70.6 °F 52.1 °F 29.94 in WNW 2.0 mph 13.0 mph 52% 0.00 in
12:39 70.4 °F 50.3 °F 29.94 in North 2.0 mph 13.0 mph 49% 0.00 in
12:44 70.0 °F 48.9 °F 29.94 in West 6.0 mph 10.0 mph 47% 0.00 in
12:50 70.0 °F 50.0 °F 29.94 in NW 1.0 mph 10.0 mph 49% 0.00 in
12:54 70.3 °F 52.9 °F 29.94 in NW 3.0 mph 9.0 mph 54% 0.00 in
12:59 69.7 °F 47.4 °F 29.94 in WNW 5.0 mph 12.0 mph 45% 0.00 in
13:04 69.7 °F 48.0 °F 29.94 in NW 4.0 mph 12.0 mph 46% 0.00 in
13:10 70.3 °F 49.1 °F 29.94 in NW 4.0 mph 10.0 mph 47% 0.00 in
13:14 70.4 °F 52.5 °F 29.94 in WNW 2.0 mph 11.0 mph 53% 0.00 in
13:19 70.8 °F 49.6 °F 29.94 in NNE 2.0 mph 12.0 mph 47% 0.00 in
13:25 71.3 °F 51.2 °F 29.94 in North 2.0 mph 12.0 mph 49% 0.00 in
13:29 72.0 °F 50.1 °F 29.94 in NW 4.0 mph 8.0 mph 46% 0.00 in
13:34 72.0 °F 49.5 °F 29.94 in Calm   8.0 mph 45% 0.00 in
13:40 72.1 °F 49.6 °F 29.94 in NW 2.0 mph 8.0 mph 45% 0.00 in
13:44 72.1 °F 48.4 °F 29.94 in Calm   5.0 mph 43% 0.00 in
13:49 71.9 °F 50.0 °F 29.94 in WNW 5.0 mph 10.0 mph 46% 0.00 in
13:54 71.7 °F 49.2 °F 29.94 in WNW 2.0 mph 10.0 mph 45% 0.00 in
13:59 71.6 °F 47.9 °F 29.94 in NW 1.0 mph 8.0 mph 43% 0.00 in
14:05 71.2 °F 50.5 °F 29.94 in WNW 8.0 mph 14.0 mph 48% 0.00 in
14:09 71.2 °F 50.5 °F 29.94 in NNW 3.0 mph 14.0 mph 48% 0.00 in
14:14 71.5 °F 49.1 °F 29.94 in WNW 1.0 mph 10.0 mph 45% 0.00 in
14:20 71.7 °F 50.4 °F 29.94 in NNW 1.0 mph 7.0 mph 47% 0.00 in
14:24 72.1 °F 50.8 °F 29.94 in WNW 3.0 mph 7.0 mph 47% 0.00 in
14:29 72.4 °F 52.2 °F 29.94 in NW 2.0 mph 9.0 mph 49% 0.00 in
14:35 72.9 °F 47.2 °F 29.94 in Calm   9.0 mph 40% 0.00 in
14:39 72.9 °F 49.7 °F 29.94 in NW 2.0 mph 8.0 mph 44% 0.00 in
14:44 72.4 °F 49.9 °F 29.94 in NNW 2.0 mph 12.0 mph 45% 0.00 in
14:49 71.8 °F 46.9 °F 29.94 in NW 5.0 mph 12.0 mph 41% 0.00 in
14:54 71.7 °F 50.4 °F 29.94 in WNW 1.0 mph 10.0 mph 47% 0.00 in
14:59 71.7 °F 49.2 °F 29.94 in NW 5.0 mph 11.0 mph 45% 0.00 in
15:05 71.4 °F 47.8 °F 29.94 in WNW 5.0 mph 11.0 mph 43% 0.00 in
15:09 71.6 °F 47.9 °F 29.94 in West 2.0 mph 11.0 mph 43% 0.00 in
15:14 72.1 °F 47.8 °F 29.94 in NW 5.0 mph 12.0 mph 42% 0.00 in
15:19 71.9 °F 47.6 °F 29.94 in WNW 4.0 mph 12.0 mph 42% 0.00 in
15:24 72.4 °F 49.3 °F 29.93 in West 2.0 mph 10.0 mph 44% 0.00 in
15:29 72.7 °F 49.6 °F 29.93 in West 4.0 mph 12.0 mph 44% 0.00 in
15:35 72.8 °F 51.4 °F 29.94 in WNW 1.0 mph 12.0 mph 47% 0.00 in
15:39 73.3 °F 47.5 °F 29.94 in Calm   6.0 mph 40% 0.00 in
15:44 73.7 °F 51.7 °F 29.94 in NW 1.0 mph 5.0 mph 46% 0.00 in
15:49 73.7 °F 47.2 °F 29.93 in WNW 4.0 mph 8.0 mph 39% 0.00 in
15:54 73.1 °F 47.4 °F 29.94 in NW 1.0 mph 8.0 mph 40% 0.00 in
15:59 73.5 °F 48.4 °F 29.93 in NW 1.0 mph 6.0 mph 41% 0.00 in
16:04 73.3 °F 48.2 °F 29.93 in NW 1.0 mph 4.0 mph 41% 0.00 in
16:09 73.5 °F 50.3 °F 29.93 in Calm   4.0 mph 44% 0.00 in
16:14 73.5 °F 49.7 °F 29.93 in NW 1.0 mph 7.0 mph 43% 0.00 in
16:19 73.6 °F 48.5 °F 29.93 in WNW 1.0 mph 7.0 mph 41% 0.00 in
16:25 73.8 °F 52.9 °F 29.93 in NNW 1.0 mph 7.0 mph 48% 0.00 in
16:29 74.1 °F 48.3 °F 29.93 in NW 2.0 mph 8.0 mph 40% 0.00 in
16:34 73.1 °F 50.5 °F 29.93 in NW 6.0 mph 11.0 mph 45% 0.00 in
16:40 72.8 °F 48.4 °F 29.93 in NW 3.0 mph 11.0 mph 42% 0.00 in
16:44 73.0 °F 49.2 °F 29.93 in NW 3.0 mph 8.0 mph 43% 0.00 in
16:49 73.5 °F 52.1 °F 29.93 in WNW 1.0 mph 8.0 mph 47% 0.00 in
16:54 73.6 °F 47.8 °F 29.93 in NW 1.0 mph 9.0 mph 40% 0.00 in
16:59 73.5 °F 48.4 °F 29.93 in Calm   9.0 mph 41% 0.00 in
17:04 73.6 °F 47.1 °F 29.93 in NW 2.0 mph 10.0 mph 39% 0.00 in
17:09 73.2 °F 50.6 °F 29.93 in NW 3.0 mph 10.0 mph 45% 0.00 in
17:14 72.7 °F 48.9 °F 29.93 in NW 1.0 mph 8.0 mph 43% 0.00 in
17:19 72.6 °F 50.7 °F 29.93 in NW 4.0 mph 9.0 mph 46% 0.00 in
17:24 72.7 °F 50.2 °F 29.93 in Calm   9.0 mph 45% 0.00 in
17:30 72.8 °F 47.1 °F 29.93 in NW 5.0 mph 13.0 mph 40% 0.00 in
17:34 72.1 °F 48.4 °F 29.93 in WNW 5.0 mph 13.0 mph 43% 0.00 in
17:39 71.9 °F 47.6 °F 29.93 in NW 3.0 mph 12.0 mph 42% 0.00 in
17:44 72.1 °F 49.6 °F 29.93 in NW 2.0 mph 10.0 mph 45% 0.00 in
17:49 72.0 °F 50.1 °F 29.93 in WNW 3.0 mph 13.0 mph 46% 0.00 in
17:54 72.0 °F 48.3 °F 29.93 in NW 4.0 mph 13.0 mph 43% 0.00 in
17:59 72.1 °F 49.6 °F 29.93 in NW 1.0 mph 7.0 mph 45% 0.00 in
18:04 72.2 °F 47.9 °F 29.93 in NNE 1.0 mph 6.0 mph 42% 0.00 in
18:09 72.5 °F 48.1 °F 29.93 in NW 1.0 mph 6.0 mph 42% 0.00 in
18:14 72.6 °F 50.7 °F 29.93 in NW 1.0 mph 10.0 mph 46% 0.00 in
18:19 72.5 °F 50.0 °F 29.93 in WNW 1.0 mph 10.0 mph 45% 0.00 in
18:24 72.7 °F 50.2 °F 29.93 in Calm   3.0 mph 45% 0.00 in
18:29 72.7 °F 51.3 °F 29.93 in Calm   6.0 mph 47% 0.00 in
18:34 72.6 °F 50.1 °F 29.93 in NE 1.0 mph 6.0 mph 45% 0.00 in
18:39 72.3 °F 51.0 °F 29.93 in Calm   4.0 mph 47% 0.00 in
18:44 72.2 °F 50.9 °F 29.93 in Calm   4.0 mph 47% 0.00 in
18:49 72.0 °F 49.5 °F 29.93 in NE 1.0 mph 4.0 mph 45% 0.00 in
18:54 71.6 °F 50.9 °F 29.93 in Calm   4.0 mph 48% 0.00 in
18:59 71.6 °F 49.2 °F 29.93 in Calm   2.0 mph 45% 0.00 in
19:04 71.7 °F 49.2 °F 29.93 in Calm   3.0 mph 45% 0.00 in
19:09 71.5 °F 49.7 °F 29.93 in NW 1.0 mph 7.0 mph 46% 0.00 in
19:14 71.2 °F 48.8 °F 29.93 in NW 1.0 mph 7.0 mph 45% 0.00 in
19:19 70.9 °F 49.7 °F 29.93 in Calm   5.0 mph 47% 0.00 in
19:24 70.7 °F 51.2 °F 29.94 in Calm   3.0 mph 50% 0.00 in
19:29 70.3 °F 49.7 °F 29.94 in Calm     48% 0.00 in
19:34 70.2 °F 52.3 °F 29.94 in Calm     53% 0.00 in
19:39 70.1 °F 50.6 °F 29.94 in Calm   1.0 mph 50% 0.00 in
19:44 69.8 °F 51.9 °F 29.94 in Calm   1.0 mph 53% 0.00 in
19:49 69.5 °F 51.1 °F 29.94 in Calm     52% 0.00 in
19:54 69.1 °F 50.8 °F 29.94 in Calm     52% 0.00 in
19:59 68.6 °F 51.3 °F 29.94 in Calm     54% 0.00 in
20:05 67.9 °F 50.7 °F 29.94 in Calm   1.0 mph 54% 0.00 in
20:14 66.2 °F 50.5 °F 29.94 in Calm     57% 0.00 in
20:19 65.0 °F 51.2 °F 29.94 in Calm     61% 0.00 in
20:24 63.8 °F 51.4 °F 29.94 in Calm     64% 0.00 in
20:29 62.6 °F 50.3 °F 29.94 in Calm     64% 0.00 in
20:34 61.3 °F 49.9 °F 29.94 in Calm     66% 0.00 in
20:39 60.1 °F 49.1 °F 29.94 in Calm     67% 0.00 in
20:44 59.0 °F 49.2 °F 29.94 in Calm     70% 0.00 in
20:49 58.3 °F 48.9 °F 29.94 in Calm     71% 0.00 in
20:54 57.5 °F 48.6 °F 29.94 in Calm     72% 0.00 in
20:59 56.9 °F 48.7 °F 29.94 in Calm     74% 0.00 in
21:04 56.3 °F 48.5 °F 29.94 in Calm     75% 0.00 in
21:09 55.9 °F 48.5 °F 29.94 in Calm     76% 0.00 in
21:14 55.5 °F 48.4 °F 29.95 in Calm     77% 0.00 in
21:19 55.1 °F 48.0 °F 29.95 in Calm     77% 0.00 in
21:24 54.7 °F 48.0 °F 29.95 in Calm     78% 0.00 in
21:29 54.5 °F 47.4 °F 29.95 in Calm     77% 0.00 in
21:35 54.3 °F 47.6 °F 29.95 in Calm     78% 0.00 in
21:39 54.2 °F 47.8 °F 29.95 in Calm     79% 0.00 in
21:44 54.0 °F 47.3 °F 29.95 in Calm     78% 0.00 in
21:49 54.0 °F 47.3 °F 29.95 in Calm     78% 0.00 in
21:54 53.9 °F 47.5 °F 29.95 in Calm     79% 0.00 in
21:59 53.8 °F 47.4 °F 29.95 in Calm     79% 0.00 in
22:04 53.6 °F 47.6 °F 29.95 in Calm     80% 0.00 in
22:09 53.4 °F 47.4 °F 29.95 in Calm     80% 0.00 in
22:14 53.3 °F 47.0 °F 29.95 in Calm     79% 0.00 in
22:19 53.6 °F 46.9 °F 29.95 in Calm     78% 0.00 in
22:24 53.8 °F 47.1 °F 29.95 in Calm     78% 0.00 in
22:29 54.1 °F 47.4 °F 29.95 in Calm     78% 0.00 in
22:34 54.3 °F 47.3 °F 29.95 in Calm     77% 0.00 in
22:39 54.4 °F 47.0 °F 29.95 in Calm     76% 0.00 in
22:45 54.5 °F 47.1 °F 29.95 in Calm     76% 0.00 in
22:54 54.5 °F 47.1 °F 29.95 in Calm     76% 0.00 in
22:59 54.7 °F 47.3 °F 29.95 in Calm     76% 0.00 in
23:04 54.7 °F 47.3 °F 29.95 in Calm     76% 0.00 in
23:09 54.6 °F 47.2 °F 29.95 in Calm     76% 0.00 in
23:14 54.6 °F 47.2 °F 29.95 in Calm     76% 0.00 in
23:19 54.8 °F 47.0 °F 29.95 in Calm     75% 0.00 in
23:24 54.9 °F 46.8 °F 29.95 in Calm     74% 0.00 in
23:29 55.1 °F 47.0 °F 29.95 in Calm     74% 0.00 in
23:34 55.0 °F 47.2 °F 29.95 in Calm     75% 0.00 in
23:39 54.9 °F 47.1 °F 29.95 in Calm   1.0 mph 75% 0.00 in
23:44 54.8 °F 47.7 °F 29.95 in Calm   1.0 mph 77% 0.00 in
23:49 54.5 °F 47.8 °F 29.95 in Calm     78% 0.00 in
23:54 54.0 °F 47.6 °F 29.95 in Calm     79% 0.00 in
23:59 53.7 °F 47.7 °F 29.95 in Calm     80% 0.00 in
Westford Weather
Compliments of Weather Underground

 
 
Current Radar Loop:

Copyright © WestfordWeather.net 2007-2014. All rights reserved.